sensor_id;sensor_type;location;lat;lon;timestamp;pressure;altitude;pressure_sealevel;temperature;humidity
14882;BME280;7533;51.278;12.588;2023-03-01T00:03:38;101507.88;;;20.91;54.35
14882;BME280;7533;51.278;12.588;2023-03-01T00:08:42;101509.81;;;20.87;54.50
14882;BME280;7533;51.278;12.588;2023-03-01T00:13:47;101505.38;;;20.86;54.54
14882;BME280;7533;51.278;12.588;2023-03-01T00:18:50;101497.53;;;20.81;54.61
14882;BME280;7533;51.278;12.588;2023-03-01T00:23:54;101500.47;;;20.77;54.78
14882;BME280;7533;51.278;12.588;2023-03-01T00:28:58;101498.63;;;20.77;54.82
14882;BME280;7533;51.278;12.588;2023-03-01T00:34:03;101491.72;;;20.72;54.94
14882;BME280;7533;51.278;12.588;2023-03-01T00:39:11;101483.00;;;20.67;55.14
14882;BME280;7533;51.278;12.588;2023-03-01T00:44:14;101480.50;;;20.62;55.24
14882;BME280;7533;51.278;12.588;2023-03-01T00:49:17;101473.53;;;20.58;55.38
14882;BME280;7533;51.278;12.588;2023-03-01T00:54:21;101474.56;;;20.55;55.52
14882;BME280;7533;51.278;12.588;2023-03-01T00:59:24;101471.03;;;20.53;55.59
14882;BME280;7533;51.278;12.588;2023-03-01T01:04:27;101471.19;;;20.50;55.82
14882;BME280;7533;51.278;12.588;2023-03-01T01:09:32;101464.25;;;20.45;56.03
14882;BME280;7533;51.278;12.588;2023-03-01T01:14:35;101452.72;;;20.43;56.25
14882;BME280;7533;51.278;12.588;2023-03-01T01:19:38;101458.28;;;20.38;56.50
14882;BME280;7533;51.278;12.588;2023-03-01T01:24:42;101449.41;;;20.36;56.56
14882;BME280;7533;51.278;12.588;2023-03-01T01:29:45;101445.13;;;20.32;56.79
14882;BME280;7533;51.278;12.588;2023-03-01T01:34:48;101444.31;;;20.30;56.74
14882;BME280;7533;51.278;12.588;2023-03-01T01:39:52;101434.66;;;20.26;56.79
14882;BME280;7533;51.278;12.588;2023-03-01T01:50:42;101434.03;;;20.19;57.12
14882;BME280;7533;51.278;12.588;2023-03-01T01:55:52;101426.22;;;20.15;57.25
14882;BME280;7533;51.278;12.588;2023-03-01T02:00:56;101432.59;;;20.12;57.28
14882;BME280;7533;51.278;12.588;2023-03-01T02:06:03;101417.50;;;20.10;57.39
14882;BME280;7533;51.278;12.588;2023-03-01T02:11:10;101411.28;;;20.07;57.58
14882;BME280;7533;51.278;12.588;2023-03-01T02:16:16;101414.19;;;20.03;57.69
14882;BME280;7533;51.278;12.588;2023-03-01T02:21:37;101414.19;;;20.03;57.69
14882;BME280;7533;51.278;12.588;2023-03-01T02:26:47;101408.09;;;19.99;57.63
14882;BME280;7533;51.278;12.588;2023-03-01T02:31:54;101409.97;;;19.97;57.88
14882;BME280;7533;51.278;12.588;2023-03-01T02:37:02;101415.50;;;19.94;58.13
14882;BME280;7533;51.278;12.588;2023-03-01T02:42:06;101412.00;;;19.92;58.17
14882;BME280;7533;51.278;12.588;2023-03-01T02:47:10;101411.19;;;19.90;58.14
14882;BME280;7533;51.278;12.588;2023-03-01T02:57:44;101414.94;;;19.86;58.54
14882;BME280;7533;51.278;12.588;2023-03-01T03:02:52;101415.09;;;19.83;58.72
14882;BME280;7533;51.278;12.588;2023-03-01T03:07:59;101412.97;;;19.71;59.06
14882;BME280;7533;51.278;12.588;2023-03-01T03:13:07;101400.91;;;19.79;58.97
14882;BME280;7533;51.278;12.588;2023-03-01T03:18:15;101394.66;;;19.79;58.95
14882;BME280;7533;51.278;12.588;2023-03-01T03:23:18;101385.81;;;19.77;58.92
14882;BME280;7533;51.278;12.588;2023-03-01T03:28:21;101382.31;;;19.75;58.91
14882;BME280;7533;51.278;12.588;2023-03-01T03:33:26;101381.44;;;19.74;59.13
14882;BME280;7533;51.278;12.588;2023-03-01T03:38:28;101381.53;;;19.73;59.13
14882;BME280;7533;51.278;12.588;2023-03-01T03:43:33;101372.66;;;19.71;59.16
14882;BME280;7533;51.278;12.588;2023-03-01T03:48:40;101368.25;;;19.70;59.16
14882;BME280;7533;51.278;12.588;2023-03-01T03:53:43;101369.22;;;19.67;59.26
14882;BME280;7533;51.278;12.588;2023-03-01T03:58:46;101370.25;;;19.65;59.44
14882;BME280;7533;51.278;12.588;2023-03-01T04:03:50;101366.81;;;19.61;59.51
14882;BME280;7533;51.278;12.588;2023-03-01T04:08:56;101373.94;;;19.62;59.62
14882;BME280;7533;51.278;12.588;2023-03-01T04:14:01;101376.69;;;19.61;59.59
14882;BME280;7533;51.278;12.588;2023-03-01T04:19:07;101366.91;;;19.58;59.76
14882;BME280;7533;51.278;12.588;2023-03-01T04:24:10;101364.22;;;19.58;60.02
14882;BME280;7533;51.278;12.588;2023-03-01T04:29:13;101365.25;;;19.55;59.89
14882;BME280;7533;51.278;12.588;2023-03-01T04:34:18;101376.38;;;19.46;59.98
14882;BME280;7533;51.278;12.588;2023-03-01T04:39:20;101365.63;;;19.46;59.89
14882;BME280;7533;51.278;12.588;2023-03-01T04:44:23;101369.41;;;19.42;60.04
14882;BME280;7533;51.278;12.588;2023-03-01T04:49:27;101379.03;;;19.48;59.79
14882;BME280;7533;51.278;12.588;2023-03-01T04:54:31;101370.03;;;19.49;59.82
14882;BME280;7533;51.278;12.588;2023-03-01T04:59:34;101365.59;;;19.48;59.82
14882;BME280;7533;51.278;12.588;2023-03-01T05:04:39;101362.94;;;19.46;59.70
14882;BME280;7533;51.278;12.588;2023-03-01T05:09:42;101366.59;;;19.45;59.68
14882;BME280;7533;51.278;12.588;2023-03-01T05:14:45;101370.22;;;19.44;59.71
14882;BME280;7533;51.278;12.588;2023-03-01T05:19:49;101367.59;;;19.43;59.67
14882;BME280;7533;51.278;12.588;2023-03-01T05:24:52;101361.38;;;19.42;59.64
14882;BME280;7533;51.278;12.588;2023-03-01T05:29:57;101357.00;;;19.40;59.61
14882;BME280;7533;51.278;12.588;2023-03-01T05:35:02;101359.66;;;19.40;59.69
14882;BME280;7533;51.278;12.588;2023-03-01T05:40:05;101356.19;;;19.38;59.57
14882;BME280;7533;51.278;12.588;2023-03-01T05:45:10;101364.25;;;19.38;59.70
14882;BME280;7533;51.278;12.588;2023-03-01T05:50:16;101371.47;;;19.36;59.63
14882;BME280;7533;51.278;12.588;2023-03-01T05:55:21;101369.72;;;19.35;59.67
14882;BME280;7533;51.278;12.588;2023-03-01T06:00:24;101370.75;;;19.32;59.70
14882;BME280;7533;51.278;12.588;2023-03-01T06:05:29;101374.31;;;19.33;59.80
14882;BME280;7533;51.278;12.588;2023-03-01T06:10:32;101362.81;;;19.29;59.66
14882;BME280;7533;51.278;12.588;2023-03-01T06:15:35;101382.47;;;19.29;59.66
14882;BME280;7533;51.278;12.588;2023-03-01T06:20:39;101377.97;;;19.30;59.74
14882;BME280;7533;51.278;12.588;2023-03-01T06:25:42;101375.44;;;19.27;59.70
14882;BME280;7533;51.278;12.588;2023-03-01T06:30:45;101377.19;;;19.28;59.81
14882;BME280;7533;51.278;12.588;2023-03-01T06:35:49;101365.56;;;19.27;59.74
14882;BME280;7533;51.278;12.588;2023-03-01T06:40:53;101369.28;;;19.25;59.91
14882;BME280;7533;51.278;12.588;2023-03-01T06:45:58;101371.03;;;19.26;59.79
14882;BME280;7533;51.278;12.588;2023-03-01T06:51:02;101382.69;;;19.25;59.68
14882;BME280;7533;51.278;12.588;2023-03-01T06:56:05;101380.88;;;19.25;59.83
14882;BME280;7533;51.278;12.588;2023-03-01T07:01:09;101363.00;;;19.24;59.71
14882;BME280;7533;51.278;12.588;2023-03-01T07:06:13;101372.84;;;19.25;59.83
14882;BME280;7533;51.278;12.588;2023-03-01T07:11:16;101370.19;;;19.24;59.80
14882;BME280;7533;51.278;12.588;2023-03-01T07:16:18;101371.97;;;19.25;59.79
14882;BME280;7533;51.278;12.588;2023-03-01T07:21:23;101376.44;;;19.24;59.80
14882;BME280;7533;51.278;12.588;2023-03-01T07:26:25;101357.59;;;19.26;59.82
14882;BME280;7533;51.278;12.588;2023-03-01T07:31:29;101355.03;;;19.23;59.86
14882;BME280;7533;51.278;12.588;2023-03-01T07:36:33;101369.47;;;19.20;59.90
14882;BME280;7533;51.278;12.588;2023-03-01T07:41:37;101355.97;;;19.22;59.83
14882;BME280;7533;51.278;12.588;2023-03-01T07:46:40;101363.16;;;16.84;42.87
14882;BME280;7533;51.278;12.588;2023-03-01T07:51:44;101384.19;;;12.88;43.91
14882;BME280;7533;51.278;12.588;2023-03-01T07:56:47;101385.16;;;12.21;44.85
14882;BME280;7533;51.278;12.588;2023-03-01T08:01:50;101370.53;;;15.54;45.25
14882;BME280;7533;51.278;12.588;2023-03-01T08:06:55;101354.66;;;17.24;44.90
14882;BME280;7533;51.278;12.588;2023-03-01T08:11:57;101354.97;;;17.90;45.79
14882;BME280;7533;51.278;12.588;2023-03-01T08:17:02;101349.00;;;18.30;46.45
14882;BME280;7533;51.278;12.588;2023-03-01T08:22:06;101357.78;;;18.56;47.05
14882;BME280;7533;51.278;12.588;2023-03-01T08:27:09;101352.53;;;18.76;47.79
14882;BME280;7533;51.278;12.588;2023-03-01T08:32:13;101334.72;;;18.95;48.16
14882;BME280;7533;51.278;12.588;2023-03-01T08:37:17;101325.97;;;19.12;48.50
14882;BME280;7533;51.278;12.588;2023-03-01T08:42:20;101328.06;;;19.26;49.04
14882;BME280;7533;51.278;12.588;2023-03-01T08:47:23;101325.91;;;19.34;49.38
14882;BME280;7533;51.278;12.588;2023-03-01T08:52:29;101327.53;;;19.38;49.67
14882;BME280;7533;51.278;12.588;2023-03-01T08:57:32;101325.59;;;19.42;50.09
14882;BME280;7533;51.278;12.588;2023-03-01T09:02:34;101319.19;;;19.44;50.40
14882;BME280;7533;51.278;12.588;2023-03-01T09:07:39;101320.06;;;19.45;50.79
14882;BME280;7533;51.278;12.588;2023-03-01T09:12:42;101319.13;;;19.46;50.99
14882;BME280;7533;51.278;12.588;2023-03-01T09:17:44;101303.88;;;19.46;51.29
14882;BME280;7533;51.278;12.588;2023-03-01T09:22:49;101311.91;;;19.48;51.65
14882;BME280;7533;51.278;12.588;2023-03-01T09:27:52;101302.91;;;19.49;51.70
14882;BME280;7533;51.278;12.588;2023-03-01T09:32:56;101300.22;;;19.49;51.99
14882;BME280;7533;51.278;12.588;2023-03-01T09:38:00;101296.56;;;19.50;51.90
14882;BME280;7533;51.278;12.588;2023-03-01T09:43:11;101303.69;;;19.51;52.40
14882;BME280;7533;51.278;12.588;2023-03-01T09:48:20;101300.13;;;19.50;52.60
14882;BME280;7533;51.278;12.588;2023-03-01T09:53:32;101293.81;;;19.51;52.77
14882;BME280;7533;51.278;12.588;2023-03-01T09:58:47;101284.88;;;19.51;52.88
14882;BME280;7533;51.278;12.588;2023-03-01T10:04:05;101284.81;;;19.52;53.12
14882;BME280;7533;51.278;12.588;2023-03-01T10:09:16;101279.44;;;19.52;53.28
14882;BME280;7533;51.278;12.588;2023-03-01T10:14:29;101288.41;;;19.53;53.29
14882;BME280;7533;51.278;12.588;2023-03-01T10:19:36;101287.38;;;19.35;51.31
14882;BME280;7533;51.278;12.588;2023-03-01T10:24:42;101278.66;;;19.50;53.50
14882;BME280;7533;51.278;12.588;2023-03-01T10:29:50;101284.06;;;19.69;53.50
14882;BME280;7533;51.278;12.588;2023-03-01T10:34:55;101277.72;;;19.91;53.09
14882;BME280;7533;51.278;12.588;2023-03-01T10:40:04;101279.69;;;20.06;52.93
14882;BME280;7533;51.278;12.588;2023-03-01T10:45:23;101266.50;;;20.19;53.01
14882;BME280;7533;51.278;12.588;2023-03-01T10:50:29;101273.19;;;20.29;53.07
14882;BME280;7533;51.278;12.588;2023-03-01T10:55:36;101264.81;;;20.35;53.09
14882;BME280;7533;51.278;12.588;2023-03-01T11:00:50;101263.53;;;20.44;53.06
14882;BME280;7533;51.278;12.588;2023-03-01T11:05:58;101265.84;;;20.51;53.00
14882;BME280;7533;51.278;12.588;2023-03-01T11:11:14;101261.03;;;20.58;53.00
14882;BME280;7533;51.278;12.588;2023-03-01T11:16:27;101250.81;;;20.65;53.10
14882;BME280;7533;51.278;12.588;2023-03-01T11:21:33;101256.78;;;20.71;53.15
14882;BME280;7533;51.278;12.588;2023-03-01T11:26:40;101247.59;;;20.75;53.33
14882;BME280;7533;51.278;12.588;2023-03-01T11:31:45;101246.59;;;20.78;53.26
14882;BME280;7533;51.278;12.588;2023-03-01T11:37:02;101248.19;;;20.82;53.23
14882;BME280;7533;51.278;12.588;2023-03-01T11:42:15;101247.59;;;20.75;53.50
14882;BME280;7533;51.278;12.588;2023-03-01T11:47:33;101226.25;;;20.72;53.54
14882;BME280;7533;51.278;12.588;2023-03-01T11:52:51;101222.75;;;20.70;53.88
14882;BME280;7533;51.278;12.588;2023-03-01T11:58:14;101215.56;;;20.71;54.13
14882;BME280;7533;51.278;12.588;2023-03-01T12:03:29;101201.16;;;20.72;54.23
14882;BME280;7533;51.278;12.588;2023-03-01T12:08:38;101203.50;;;19.30;45.15
14882;BME280;7533;51.278;12.588;2023-03-01T12:13:55;101201.00;;;19.46;42.02
14882;BME280;7533;51.278;12.588;2023-03-01T12:19:16;101199.28;;;18.21;39.80
14882;BME280;7533;51.278;12.588;2023-03-01T12:30:25;101195.78;;;17.75;42.29
14882;BME280;7533;51.278;12.588;2023-03-01T12:35:37;101189.00;;;19.34;42.53
14882;BME280;7533;51.278;12.588;2023-03-01T12:40:54;101170.88;;;19.96;43.61
14882;BME280;7533;51.278;12.588;2023-03-01T12:46:18;101159.00;;;20.36;45.25
14882;BME280;7533;51.278;12.588;2023-03-01T12:51:26;101154.25;;;20.60;46.16
14882;BME280;7533;51.278;12.588;2023-03-01T12:56:35;101134.34;;;20.80;46.87
14882;BME280;7533;51.278;12.588;2023-03-01T13:01:48;101127.06;;;20.99;47.37
14882;BME280;7533;51.278;12.588;2023-03-01T13:07:02;101124.47;;;21.13;47.89
14882;BME280;7533;51.278;12.588;2023-03-01T13:17:45;101128.81;;;21.33;49.12
14882;BME280;7533;51.278;12.588;2023-03-01T13:23:00;101129.94;;;21.45;48.60
14882;BME280;7533;51.278;12.588;2023-03-01T13:28:39;101126.13;;;21.33;48.83
14882;BME280;7533;51.278;12.588;2023-03-01T13:33:45;101128.81;;;21.33;49.04
14882;BME280;7533;51.278;12.588;2023-03-01T13:38:56;101121.59;;;21.34;49.03
14882;BME280;7533;51.278;12.588;2023-03-01T13:43:59;101118.91;;;21.34;49.21
14882;BME280;7533;51.278;12.588;2023-03-01T13:49:04;101113.41;;;21.35;49.52
14882;BME280;7533;51.278;12.588;2023-03-01T13:54:11;101113.25;;;21.38;49.58
14882;BME280;7533;51.278;12.588;2023-03-01T13:59:16;101116.91;;;21.53;49.92
14882;BME280;7533;51.278;12.588;2023-03-01T14:04:23;101107.59;;;21.59;49.77
14882;BME280;7533;51.278;12.588;2023-03-01T14:09:28;101105.34;;;21.67;50.10
14882;BME280;7533;51.278;12.588;2023-03-01T14:14:42;101087.13;;;22.02;45.32
14882;BME280;7533;51.278;12.588;2023-03-01T14:19:54;101089.72;;;21.58;48.14
14882;BME280;7533;51.278;12.588;2023-03-01T14:24:59;101082.63;;;21.24;35.90
14882;BME280;7533;51.278;12.588;2023-03-01T14:30:10;101074.78;;;21.03;34.92
14882;BME280;7533;51.278;12.588;2023-03-01T14:35:21;101077.16;;;20.24;32.47
14882;BME280;7533;51.278;12.588;2023-03-01T14:40:27;101061.34;;;19.84;32.69
14882;BME280;7533;51.278;12.588;2023-03-01T14:45:31;101058.25;;;19.74;32.23
14882;BME280;7533;51.278;12.588;2023-03-01T14:50:40;101050.38;;;19.14;32.89
14882;BME280;7533;51.278;12.588;2023-03-01T14:55:46;101055.09;;;19.28;34.55
14882;BME280;7533;51.278;12.588;2023-03-01T15:00:52;101060.19;;;19.15;32.60
14882;BME280;7533;51.278;12.588;2023-03-01T15:05:57;101054.34;;;20.16;36.11
14882;BME280;7533;51.278;12.588;2023-03-01T15:11:03;101049.72;;;19.28;32.81
14882;BME280;7533;51.278;12.588;2023-03-01T15:16:11;101046.47;;;19.59;32.56
14882;BME280;7533;51.278;12.588;2023-03-01T15:21:18;101034.41;;;19.85;33.55
14882;BME280;7533;51.278;12.588;2023-03-01T15:26:27;101039.13;;;20.67;37.43
14882;BME280;7533;51.278;12.588;2023-03-01T15:31:35;101039.66;;;21.22;39.54
14882;BME280;7533;51.278;12.588;2023-03-01T15:36:44;101032.53;;;21.53;42.62
14882;BME280;7533;51.278;12.588;2023-03-01T15:41:48;101031.91;;;21.48;43.07
14882;BME280;7533;51.278;12.588;2023-03-01T15:46:51;101034.25;;;21.70;44.57
14882;BME280;7533;51.278;12.588;2023-03-01T15:51:55;101038.25;;;21.78;45.16
14882;BME280;7533;51.278;12.588;2023-03-01T15:56:58;101036.69;;;21.74;45.93
14882;BME280;7533;51.278;12.588;2023-03-01T16:02:01;101025.47;;;21.19;34.77
14882;BME280;7533;51.278;12.588;2023-03-01T16:07:05;101031.56;;;19.71;33.07
14882;BME280;7533;51.278;12.588;2023-03-01T16:12:14;101029.81;;;21.05;43.11
14882;BME280;7533;51.278;12.588;2023-03-01T16:17:17;101027.41;;;21.17;45.30
14882;BME280;7533;51.278;12.588;2023-03-01T16:22:21;101034.78;;;21.29;47.06
14882;BME280;7533;51.278;12.588;2023-03-01T16:27:26;101044.16;;;21.22;48.64
14882;BME280;7533;51.278;12.588;2023-03-01T16:32:29;101037.13;;;21.19;49.64
14882;BME280;7533;51.278;12.588;2023-03-01T16:37:34;101044.41;;;21.01;50.64
14882;BME280;7533;51.278;12.588;2023-03-01T16:42:37;101040.75;;;21.18;49.13
14882;BME280;7533;51.278;12.588;2023-03-01T16:47:42;101044.31;;;21.19;48.57
14882;BME280;7533;51.278;12.588;2023-03-01T16:52:46;101046.91;;;21.20;48.63
14882;BME280;7533;51.278;12.588;2023-03-01T16:57:49;101054.03;;;21.21;49.40
14882;BME280;7533;51.278;12.588;2023-03-01T17:02:53;101047.78;;;21.21;50.93
14882;BME280;7533;51.278;12.588;2023-03-01T17:07:58;101040.91;;;21.15;51.10
14882;BME280;7533;51.278;12.588;2023-03-01T17:13:01;101047.72;;;21.06;51.43
14882;BME280;7533;51.278;12.588;2023-03-01T17:18:04;101043.63;;;20.99;52.08
14882;BME280;7533;51.278;12.588;2023-03-01T17:23:09;101048.53;;;20.91;52.42
14882;BME280;7533;51.278;12.588;2023-03-01T17:28:12;101044.47;;;20.84;52.62
14882;BME280;7533;51.278;12.588;2023-03-01T17:33:16;101055.66;;;20.76;52.67
14882;BME280;7533;51.278;12.588;2023-03-01T17:38:21;101064.91;;;20.71;52.63
14882;BME280;7533;51.278;12.588;2023-03-01T17:43:23;101077.81;;;20.64;52.74
14882;BME280;7533;51.278;12.588;2023-03-01T17:48:27;101064.78;;;20.56;52.68
14882;BME280;7533;51.278;12.588;2023-03-01T17:53:31;101084.88;;;20.49;52.53
14882;BME280;7533;51.278;12.588;2023-03-01T17:58:34;101076.16;;;20.44;52.59
14882;BME280;7533;51.278;12.588;2023-03-01T18:03:37;101078.22;;;20.39;52.69
14882;BME280;7533;51.278;12.588;2023-03-01T18:08:42;101074.88;;;20.34;52.72
14882;BME280;7533;51.278;12.588;2023-03-01T18:13:46;101069.75;;;20.29;52.80
14882;BME280;7533;51.278;12.588;2023-03-01T18:18:52;101074.44;;;20.26;53.10
14882;BME280;7533;51.278;12.588;2023-03-01T18:23:57;101069.38;;;20.37;52.92
14882;BME280;7533;51.278;12.588;2023-03-01T18:29:00;101069.09;;;20.42;52.89
14882;BME280;7533;51.278;12.588;2023-03-01T18:34:05;101074.19;;;20.48;52.80
14882;BME280;7533;51.278;12.588;2023-03-01T18:39:09;101066.59;;;20.56;52.78
14882;BME280;7533;51.278;12.588;2023-03-01T18:44:12;101070.00;;;20.59;52.71
14882;BME280;7533;51.278;12.588;2023-03-01T18:49:15;101062.38;;;20.68;52.81
14882;BME280;7533;51.278;12.588;2023-03-01T18:54:19;101072.81;;;20.74;52.48
14882;BME280;7533;51.278;12.588;2023-03-01T18:59:22;101058.34;;;20.76;52.62
14882;BME280;7533;51.278;12.588;2023-03-01T19:04:25;101069.78;;;20.80;52.65
14882;BME280;7533;51.278;12.588;2023-03-01T19:09:29;101064.25;;;20.83;52.61
14882;BME280;7533;51.278;12.588;2023-03-01T19:14:32;101058.63;;;20.88;52.56
14882;BME280;7533;51.278;12.588;2023-03-01T19:19:35;101068.34;;;20.90;52.71
14882;BME280;7533;51.278;12.588;2023-03-01T19:24:39;101064.53;;;20.94;52.77
14882;BME280;7533;51.278;12.588;2023-03-01T19:29:42;101058.97;;;20.97;52.53
14882;BME280;7533;51.278;12.588;2023-03-01T19:34:45;101042.72;;;20.99;52.62
14882;BME280;7533;51.278;12.588;2023-03-01T19:39:49;101046.13;;;21.02;52.61
14882;BME280;7533;51.278;12.588;2023-03-01T19:44:53;101048.66;;;21.05;52.60
14882;BME280;7533;51.278;12.588;2023-03-01T19:49:56;101042.22;;;21.08;52.61
14882;BME280;7533;51.278;12.588;2023-03-01T19:55:00;101055.59;;;21.09;52.48
14882;BME280;7533;51.278;12.588;2023-03-01T20:00:11;101054.47;;;21.13;52.59
14882;BME280;7533;51.278;12.588;2023-03-01T20:05:15;101046.25;;;21.17;52.53
14882;BME280;7533;51.278;12.588;2023-03-01T20:10:19;101045.28;;;21.18;52.51
14882;BME280;7533;51.278;12.588;2023-03-01T20:15:22;101040.75;;;21.18;52.59
14882;BME280;7533;51.278;12.588;2023-03-01T20:20:25;101038.78;;;21.22;52.66
14882;BME280;7533;51.278;12.588;2023-03-01T20:25:29;101043.22;;;21.23;52.53
14882;BME280;7533;51.278;12.588;2023-03-01T20:30:32;101042.25;;;21.24;52.48
14882;BME280;7533;51.278;12.588;2023-03-01T20:35:35;101042.16;;;21.25;52.43
14882;BME280;7533;51.278;12.588;2023-03-01T20:40:39;101030.34;;;21.28;52.41
14882;BME280;7533;51.278;12.588;2023-03-01T20:45:42;101023.06;;;21.30;52.55
14882;BME280;7533;51.278;12.588;2023-03-01T20:50:45;101035.50;;;21.32;52.49
14882;BME280;7533;51.278;12.588;2023-03-01T20:55:49;101036.38;;;21.33;52.49
14882;BME280;7533;51.278;12.588;2023-03-01T21:00:54;101038.13;;;21.34;52.40
14882;BME280;7533;51.278;12.588;2023-03-01T21:05:59;101028.97;;;21.36;52.54
14882;BME280;7533;51.278;12.588;2023-03-01T21:11:05;101019.06;;;21.37;52.39
14882;BME280;7533;51.278;12.588;2023-03-01T21:16:11;101028.00;;;21.37;52.31
14882;BME280;7533;51.278;12.588;2023-03-01T21:21:16;101019.00;;;21.38;52.45
14882;BME280;7533;51.278;12.588;2023-03-01T21:26:23;101021.69;;;21.38;52.24
14882;BME280;7533;51.278;12.588;2023-03-01T21:31:28;101015.25;;;21.41;52.22
14882;BME280;7533;51.278;12.588;2023-03-01T21:36:33;101011.50;;;21.44;52.12
14882;BME280;7533;51.278;12.588;2023-03-01T21:41:39;101007.78;;;21.46;52.24
14882;BME280;7533;51.278;12.588;2023-03-01T21:46:41;100997.09;;;21.45;51.90
14882;BME280;7533;51.278;12.588;2023-03-01T21:51:45;100986.22;;;21.46;52.01
14882;BME280;7533;51.278;12.588;2023-03-01T21:56:49;100984.41;;;21.47;52.16
14882;BME280;7533;51.278;12.588;2023-03-01T22:01:52;100980.66;;;21.49;52.21
14882;BME280;7533;51.278;12.588;2023-03-01T22:06:55;100980.66;;;21.49;52.02
14882;BME280;7533;51.278;12.588;2023-03-01T22:11:59;100980.66;;;21.49;52.06
14882;BME280;7533;51.278;12.588;2023-03-01T22:17:03;100991.25;;;21.52;52.08
14882;BME280;7533;51.278;12.588;2023-03-01T22:22:06;100995.09;;;21.48;52.15
14882;BME280;7533;51.278;12.588;2023-03-01T22:27:10;100990.66;;;21.47;52.29
14882;BME280;7533;51.278;12.588;2023-03-01T22:32:13;100990.75;;;21.46;52.32
14882;BME280;7533;51.278;12.588;2023-03-01T22:37:15;100991.72;;;21.45;52.41
14882;BME280;7533;51.278;12.588;2023-03-01T22:42:20;100980.09;;;21.44;52.40
14882;BME280;7533;51.278;12.588;2023-03-01T22:47:23;100978.25;;;21.45;52.83
14882;BME280;7533;51.278;12.588;2023-03-01T22:52:25;100975.63;;;21.43;52.68
14882;BME280;7533;51.278;12.588;2023-03-01T22:57:30;100974.84;;;21.41;52.67
14882;BME280;7533;51.278;12.588;2023-03-01T23:02:32;100984.66;;;21.42;52.70
14882;BME280;7533;51.278;12.588;2023-03-01T23:07:37;100975.81;;;21.40;52.97
14882;BME280;7533;51.278;12.588;2023-03-01T23:12:41;100971.31;;;21.41;52.79
14882;BME280;7533;51.278;12.588;2023-03-01T23:17:44;100971.66;;;21.34;53.02
14882;BME280;7533;51.278;12.588;2023-03-01T23:22:46;100975.47;;;21.30;53.32
14882;BME280;7533;51.278;12.588;2023-03-01T23:27:50;100968.59;;;21.25;53.51
14882;BME280;7533;51.278;12.588;2023-03-01T23:32:54;100972.59;;;21.18;53.86
14882;BME280;7533;51.278;12.588;2023-03-01T23:38:00;100982.75;;;21.12;53.94
14882;BME280;7533;51.278;12.588;2023-03-01T23:43:05;100978.41;;;21.10;54.00
14882;BME280;7533;51.278;12.588;2023-03-01T23:48:09;100992.06;;;21.07;54.36
14882;BME280;7533;51.278;12.588;2023-03-01T23:53:15;100987.78;;;21.03;54.44
14882;BME280;7533;51.278;12.588;2023-03-01T23:58:20;100982.50;;;21.01;54.47
